createdAt,value
2022-10-05T00:00:46.114Z,5
2022-10-05T00:02:46.229Z,6
2022-10-05T00:04:46.336Z,4
2022-10-05T00:06:46.669Z,5
2022-10-05T00:08:46.539Z,5
2022-10-05T00:10:46.641Z,6
2022-10-05T00:12:46.733Z,5
2022-10-05T00:14:46.823Z,5
2022-10-05T00:16:47.278Z,4
2022-10-05T00:18:47.031Z,5
2022-10-05T00:20:47.291Z,4
2022-10-05T00:22:47.390Z,5
2022-10-05T00:24:47.496Z,5
2022-10-05T00:26:48.204Z,4
2022-10-05T00:28:47.721Z,3
2022-10-05T00:30:47.831Z,4
2022-10-05T00:32:47.949Z,5
2022-10-05T00:34:48.063Z,6
2022-10-05T00:38:48.264Z,7
2022-10-05T00:40:48.364Z,7
2022-10-05T00:42:48.476Z,8
2022-10-05T00:44:48.575Z,8
2022-10-05T00:46:48.957Z,9
2022-10-05T00:48:48.766Z,9
2022-10-05T00:50:48.855Z,10
2022-10-05T00:52:49.041Z,10
2022-10-05T00:54:49.055Z,8
2022-10-05T00:56:49.242Z,9
2022-10-05T00:58:49.253Z,9
2022-10-05T01:00:49.394Z,8
2022-10-05T01:02:49.509Z,8
2022-10-05T01:04:49.513Z,7
2022-10-05T01:06:49.615Z,6
2022-10-05T01:08:49.702Z,4
2022-10-05T01:10:49.859Z,4
2022-10-05T01:12:49.928Z,6
2022-10-05T01:14:50.019Z,5
2022-10-05T01:16:50.737Z,5
2022-10-05T01:18:50.271Z,5
2022-10-05T01:20:50.370Z,5
2022-10-05T01:22:50.525Z,5
2022-10-05T01:24:50.565Z,6
2022-10-05T01:26:50.606Z,5
2022-10-05T01:28:50.695Z,4
2022-10-05T01:30:50.840Z,5
2022-10-05T01:32:50.905Z,6
2022-10-05T01:34:50.976Z,4
2022-10-05T01:36:51.084Z,5
2022-10-05T01:38:51.182Z,5
2022-10-05T01:40:51.276Z,6
2022-10-05T01:42:51.383Z,6
2022-10-05T01:44:51.466Z,6
2022-10-05T01:46:51.562Z,7
2022-10-05T01:48:51.669Z,5
2022-10-05T01:50:51.797Z,6
2022-10-05T01:52:51.862Z,4
2022-10-05T01:54:51.954Z,5
2022-10-05T01:56:52.033Z,5
2022-10-05T01:58:52.136Z,4
2022-10-05T02:00:52.258Z,6
2022-10-05T02:02:52.327Z,4
2022-10-05T02:05:02.612Z,5
2022-10-05T02:06:52.509Z,5
2022-10-05T02:08:52.612Z,6
2022-10-05T02:10:52.768Z,5
2022-10-05T02:12:52.785Z,6
2022-10-05T02:16:52.977Z,6
2022-10-05T02:18:53.067Z,7
2022-10-05T02:20:53.165Z,6
2022-10-05T02:22:53.276Z,8
2022-10-05T02:24:53.354Z,7
2022-10-05T02:26:53.447Z,8
2022-10-05T02:28:53.534Z,7
2022-10-05T02:30:53.634Z,7
2022-10-05T02:32:53.730Z,8
2022-10-05T02:34:53.822Z,11
2022-10-05T02:36:53.910Z,10
2022-10-05T02:38:54.013Z,7
2022-10-05T02:40:54.094Z,8
2022-10-05T02:42:54.191Z,7
2022-10-05T02:44:54.280Z,8
2022-10-05T02:46:57.214Z,6
2022-10-05T02:48:54.471Z,5
2022-10-05T02:50:54.607Z,6
2022-10-05T02:52:54.656Z,4
2022-10-05T02:54:54.741Z,5
2022-10-05T02:56:54.828Z,4
2022-10-05T02:58:54.915Z,6
2022-10-05T03:00:55.060Z,6
2022-10-05T03:02:55.090Z,5
2022-10-05T03:04:55.274Z,7
2022-10-05T03:06:55.277Z,5
2022-10-05T03:10:55.466Z,4
2022-10-05T03:12:55.551Z,5
2022-10-05T03:14:55.658Z,5
2022-10-05T03:16:55.735Z,7
2022-10-05T03:18:55.819Z,5
2022-10-05T03:20:55.898Z,5
2022-10-05T03:22:56.041Z,5
2022-10-05T03:24:56.091Z,6
2022-10-05T03:26:56.179Z,6
2022-10-05T03:28:56.241Z,7
2022-10-05T03:30:56.405Z,13
2022-10-05T03:32:56.422Z,17
2022-10-05T03:34:56.509Z,20
2022-10-05T03:36:56.611Z,17
2022-10-05T03:38:56.687Z,18
2022-10-05T03:40:56.776Z,18
2022-10-05T03:42:56.862Z,11
2022-10-05T03:44:56.964Z,13
2022-10-05T03:46:57.044Z,13
2022-10-05T03:48:57.125Z,13
2022-10-05T03:50:57.224Z,6
2022-10-05T03:52:57.306Z,7
2022-10-05T03:54:57.397Z,8
2022-10-05T03:56:57.486Z,7
2022-10-05T03:58:57.565Z,6
2022-10-05T04:00:57.625Z,5
2022-10-05T04:02:57.755Z,5
2022-10-05T04:04:57.778Z,6
2022-10-05T04:06:57.871Z,8
2022-10-05T04:09:28.014Z,5
2022-10-05T04:11:28.134Z,4
2022-10-05T04:13:28.244Z,6
2022-10-05T04:15:28.363Z,4
2022-10-05T04:17:28.487Z,4
2022-10-05T04:19:28.589Z,4
2022-10-05T04:21:28.722Z,5
2022-10-05T04:23:28.835Z,4
2022-10-05T04:25:28.930Z,5
2022-10-05T04:27:29.025Z,7
2022-10-05T04:29:29.199Z,6
2022-10-05T04:31:29.335Z,5
2022-10-05T04:33:29.359Z,7
2022-10-05T04:35:29.474Z,6
2022-10-05T04:37:29.580Z,12
2022-10-05T04:39:29.662Z,10
2022-10-05T04:41:29.780Z,8
2022-10-05T04:43:29.890Z,11
2022-10-05T04:45:30.001Z,13
2022-10-05T04:47:30.118Z,10
2022-10-05T04:49:30.269Z,10
2022-10-05T04:51:30.323Z,13
2022-10-05T04:53:30.448Z,11
2022-10-05T04:55:30.563Z,13
2022-10-05T04:57:30.645Z,11
2022-10-05T04:59:30.745Z,10
2022-10-05T05:01:30.852Z,10
2022-10-05T05:03:30.983Z,11
2022-10-05T05:05:31.063Z,11
2022-10-05T05:07:31.140Z,9
2022-10-05T05:09:31.296Z,12
2022-10-05T05:11:31.416Z,19
2022-10-05T05:13:31.447Z,16
2022-10-05T05:15:31.545Z,15
2022-10-05T05:17:31.665Z,14
2022-10-05T05:21:31.886Z,15
2022-10-05T05:23:31.992Z,13
2022-10-05T05:25:32.077Z,14
2022-10-05T05:27:32.154Z,23
2022-10-05T05:29:32.319Z,22
2022-10-05T05:31:32.475Z,19
2022-10-05T05:33:32.461Z,16
2022-10-05T05:35:32.545Z,16
2022-10-05T05:37:32.658Z,14
2022-10-05T05:39:32.767Z,15
2022-10-05T05:41:32.877Z,19
2022-10-05T05:43:32.987Z,15
2022-10-05T05:45:33.097Z,13
2022-10-05T05:47:33.337Z,12
2022-10-05T05:49:33.303Z,14
2022-10-05T05:51:33.412Z,14
2022-10-05T05:53:33.570Z,12
2022-10-05T05:55:33.608Z,13
2022-10-05T05:57:33.702Z,14
2022-10-05T05:59:33.806Z,13
2022-10-05T06:01:34.214Z,14
2022-10-05T06:03:33.992Z,15
2022-10-05T06:05:34.113Z,12
2022-10-05T06:07:34.207Z,15
2022-10-05T06:09:34.313Z,14
2022-10-05T06:11:34.424Z,14
2022-10-05T06:13:34.529Z,18
2022-10-05T06:15:34.610Z,13
2022-10-05T06:19:34.812Z,14
2022-10-05T06:21:34.923Z,16
2022-10-05T06:23:35.032Z,12
2022-10-05T06:25:35.136Z,15
2022-10-05T06:27:35.231Z,14
2022-10-05T06:29:35.321Z,15
2022-10-05T06:31:35.504Z,16
2022-10-05T06:33:35.521Z,13
2022-10-05T06:35:35.633Z,13
2022-10-05T06:37:35.710Z,12
2022-10-05T06:39:35.948Z,11
2022-10-05T06:41:35.890Z,14
2022-10-05T06:43:36.015Z,14
2022-10-05T06:45:36.124Z,17
2022-10-05T06:47:36.173Z,16
2022-10-05T06:49:36.268Z,18
2022-10-05T06:51:36.419Z,16
2022-10-05T06:53:36.459Z,15
2022-10-05T06:57:36.690Z,15
2022-10-05T06:59:36.747Z,26
2022-10-05T07:01:36.934Z,16
2022-10-05T07:03:36.942Z,18
2022-10-05T07:05:37.173Z,18
2022-10-05T07:07:37.134Z,17
2022-10-05T07:09:37.207Z,15
2022-10-05T07:11:37.292Z,16
2022-10-05T07:13:37.429Z,16
2022-10-05T07:15:37.477Z,15
2022-10-05T07:17:37.560Z,13
2022-10-05T07:19:37.671Z,11
2022-10-05T07:21:37.764Z,15
2022-10-05T07:23:37.850Z,14
2022-10-05T07:25:37.937Z,11
2022-10-05T07:27:38.035Z,11
2022-10-05T07:29:38.132Z,13
2022-10-05T07:31:38.214Z,12
2022-10-05T07:33:38.318Z,13
2022-10-05T07:35:38.405Z,13
2022-10-05T07:37:38.487Z,13
2022-10-05T07:39:58.970Z,13
2022-10-05T07:41:38.663Z,13
2022-10-05T07:44:00.445Z,12
2022-10-05T07:45:38.866Z,15
2022-10-05T07:47:38.930Z,16
2022-10-05T07:49:39.013Z,16
2022-10-05T07:51:39.099Z,17
2022-10-05T07:53:39.180Z,16
2022-10-05T07:55:39.314Z,15
2022-10-05T07:57:39.395Z,15
2022-10-05T07:59:39.459Z,13
2022-10-05T08:01:39.612Z,13
2022-10-05T08:03:39.668Z,12
2022-10-05T08:05:39.715Z,12
2022-10-05T08:07:39.823Z,13
2022-10-05T08:09:39.901Z,10
2022-10-05T08:11:39.989Z,10
2022-10-05T08:13:40.079Z,8
2022-10-05T08:17:40.257Z,7
2022-10-05T08:19:40.328Z,7
2022-10-05T08:21:40.416Z,9
2022-10-05T08:23:40.504Z,8
2022-10-05T08:25:40.595Z,8
2022-10-05T08:27:40.687Z,7
2022-10-05T08:29:40.781Z,6
2022-10-05T08:31:41.028Z,8
2022-10-05T08:33:40.948Z,6
2022-10-05T08:35:41.031Z,8
2022-10-05T08:38:11.163Z,6
2022-10-05T08:40:11.270Z,6
2022-10-05T08:42:11.376Z,6
2022-10-05T08:44:11.501Z,8
2022-10-05T08:46:11.623Z,7
2022-10-05T08:48:11.668Z,8
2022-10-05T08:50:11.780Z,6
2022-10-05T08:52:11.886Z,8
2022-10-05T08:54:11.982Z,9
2022-10-05T08:56:15.303Z,7
2022-10-05T08:58:12.190Z,6
2022-10-05T09:00:12.299Z,7
2022-10-05T09:04:12.487Z,5
2022-10-05T09:06:12.575Z,9
2022-10-05T09:08:12.661Z,7
2022-10-05T09:10:12.862Z,7
2022-10-05T09:12:12.879Z,7
2022-10-05T09:14:12.985Z,6
2022-10-05T09:16:13.158Z,6
2022-10-05T09:18:13.189Z,5
2022-10-05T09:20:13.275Z,6
2022-10-05T09:22:13.398Z,6
2022-10-05T09:24:13.590Z,6
2022-10-05T09:26:13.609Z,5
2022-10-05T09:28:13.677Z,6
2022-10-05T09:30:13.760Z,5
2022-10-05T09:32:16.502Z,6
2022-10-05T09:34:13.960Z,7
2022-10-05T09:36:14.060Z,7
2022-10-05T09:38:14.134Z,6
2022-10-05T09:40:14.228Z,6
2022-10-05T09:42:14.334Z,7
2022-10-05T09:44:14.429Z,7
2022-10-05T09:46:14.545Z,5
2022-10-05T09:48:14.599Z,5
2022-10-05T09:50:14.681Z,5
2022-10-05T09:52:18.744Z,6
2022-10-05T09:54:14.838Z,4
2022-10-05T09:56:15.053Z,4
2022-10-05T09:58:15.028Z,5
2022-10-05T10:00:15.141Z,5
2022-10-05T10:02:15.391Z,6
2022-10-05T10:04:15.297Z,5
2022-10-05T10:06:15.373Z,5
2022-10-05T10:08:15.466Z,6
2022-10-05T10:10:15.554Z,5
2022-10-05T10:12:15.655Z,5
2022-10-05T10:14:15.738Z,5
2022-10-05T10:16:15.907Z,4
2022-10-05T10:18:15.907Z,5
2022-10-05T10:20:16.005Z,4
2022-10-05T10:22:16.110Z,7
2022-10-05T10:24:16.173Z,3
2022-10-05T10:26:16.276Z,4
2022-10-05T10:28:16.443Z,4
2022-10-05T10:30:16.538Z,4
2022-10-05T10:32:16.541Z,3
2022-10-05T10:34:16.619Z,3
2022-10-05T10:36:16.697Z,2
2022-10-05T10:38:16.786Z,5
2022-10-05T10:40:16.880Z,3
2022-10-05T10:42:16.944Z,3
2022-10-05T10:44:17.036Z,7
2022-10-05T10:46:17.090Z,9
2022-10-05T10:48:17.169Z,4
2022-10-05T10:50:17.257Z,4
2022-10-05T10:52:17.522Z,4
2022-10-05T10:54:17.426Z,5
2022-10-05T10:56:17.518Z,22
2022-10-05T10:58:17.599Z,5
2022-10-05T11:00:17.644Z,5
2022-10-05T11:02:47.867Z,6
2022-10-05T11:04:47.915Z,3
2022-10-05T11:06:48.022Z,4
2022-10-05T11:08:48.117Z,3
2022-10-05T11:10:48.237Z,7
2022-10-05T11:12:48.392Z,2
2022-10-05T11:14:48.438Z,3
2022-10-05T11:16:48.768Z,4
2022-10-05T11:18:48.646Z,3
2022-10-05T11:20:48.749Z,6
2022-10-05T11:22:48.845Z,4
2022-10-05T11:26:49.375Z,4
2022-10-05T11:28:49.171Z,4
2022-10-05T11:30:51.164Z,3
2022-10-05T11:32:49.416Z,4
2022-10-05T11:34:49.461Z,6
2022-10-05T11:36:49.541Z,4
2022-10-05T11:38:49.619Z,3
2022-10-05T11:40:49.723Z,3
2022-10-05T11:42:49.832Z,4
2022-10-05T11:44:49.925Z,3
2022-10-05T11:46:50.112Z,3
2022-10-05T11:48:50.116Z,5
2022-10-05T11:50:50.211Z,3
2022-10-05T11:52:50.363Z,3
2022-10-05T11:55:11.116Z,3
2022-10-05T11:56:53.819Z,3
2022-10-05T11:58:50.589Z,2
2022-10-05T12:00:50.683Z,3
2022-10-05T12:02:50.880Z,5
2022-10-05T12:04:50.878Z,3
2022-10-05T12:06:51.327Z,3
2022-10-05T12:08:51.121Z,3
2022-10-05T12:10:51.152Z,4
2022-10-05T12:12:51.278Z,2
2022-10-05T12:14:51.322Z,3
2022-10-05T12:16:51.419Z,3
2022-10-05T12:18:51.502Z,3
2022-10-05T12:20:51.612Z,2
2022-10-05T12:22:51.822Z,3
2022-10-05T12:24:51.761Z,2
2022-10-05T12:26:51.850Z,3
2022-10-05T12:30:52.030Z,4
2022-10-05T12:32:52.110Z,4
2022-10-05T12:34:52.248Z,3
2022-10-05T12:37:03.954Z,3
2022-10-05T12:38:52.367Z,4
2022-10-05T12:40:52.456Z,3
2022-10-05T12:44:52.618Z,2
2022-10-05T12:46:52.714Z,4
2022-10-05T12:48:52.801Z,4
2022-10-05T12:50:52.865Z,2
2022-10-05T12:52:52.955Z,4
2022-10-05T12:54:53.034Z,2
2022-10-05T12:56:53.113Z,4
2022-10-05T12:59:23.262Z,3
2022-10-05T13:01:23.478Z,3
2022-10-05T13:03:23.497Z,2
2022-10-05T13:05:23.612Z,3
2022-10-05T13:09:23.830Z,2
2022-10-05T13:11:24.114Z,3
2022-10-05T13:13:24.041Z,3
2022-10-05T13:15:24.206Z,3
2022-10-05T13:17:24.296Z,2
2022-10-05T13:19:24.359Z,3
2022-10-05T13:21:24.460Z,3
2022-10-05T13:23:24.575Z,3
2022-10-05T13:25:24.672Z,2
2022-10-05T13:27:24.772Z,2
2022-10-05T13:29:24.891Z,3
2022-10-05T13:31:25.063Z,3
2022-10-05T13:33:25.113Z,2
2022-10-05T13:35:25.216Z,4
2022-10-05T13:37:25.424Z,3
2022-10-05T13:39:25.396Z,3
2022-10-05T13:41:25.498Z,3
2022-10-05T13:43:25.645Z,5
2022-10-05T13:45:25.875Z,4
2022-10-05T13:47:25.815Z,3
2022-10-05T13:49:25.905Z,3
2022-10-05T13:51:26.021Z,3
2022-10-05T13:53:26.129Z,2
2022-10-05T13:55:26.229Z,4
2022-10-05T13:57:26.310Z,2
2022-10-05T13:59:26.399Z,2
2022-10-05T14:01:26.487Z,3
2022-10-05T14:03:26.633Z,4
2022-10-05T14:05:26.696Z,2
2022-10-05T14:07:26.766Z,2
2022-10-05T14:09:26.866Z,3
2022-10-05T14:11:26.979Z,2
2022-10-05T14:13:27.287Z,2
2022-10-05T14:15:27.139Z,3
2022-10-05T14:19:27.326Z,2
2022-10-05T14:21:27.415Z,3
2022-10-05T14:23:27.510Z,3
2022-10-05T14:25:27.606Z,3
2022-10-05T14:27:27.706Z,3
2022-10-05T14:31:27.969Z,2
2022-10-05T14:33:27.958Z,3
2022-10-05T14:37:28.125Z,4
2022-10-05T14:39:28.234Z,3
2022-10-05T14:41:28.323Z,3
2022-10-05T14:43:28.394Z,3
2022-10-05T14:45:28.635Z,4
2022-10-05T14:47:28.573Z,4
2022-10-05T14:49:28.704Z,3
2022-10-05T14:51:28.740Z,6
2022-10-05T14:53:28.880Z,6
2022-10-05T14:55:28.934Z,5
2022-10-05T14:57:59.020Z,3
2022-10-05T14:59:59.139Z,3
2022-10-05T15:01:59.289Z,3
2022-10-05T15:03:59.357Z,3
2022-10-05T15:05:59.536Z,2
2022-10-05T15:07:59.578Z,3
2022-10-05T15:09:59.692Z,4
2022-10-05T15:11:59.859Z,3
2022-10-05T15:13:59.916Z,6
2022-10-05T15:16:00.110Z,3
2022-10-05T15:18:00.115Z,4
2022-10-05T15:20:00.244Z,4
2022-10-05T15:22:00.343Z,6
2022-10-05T15:24:00.411Z,8
2022-10-05T15:26:00.520Z,5
2022-10-05T15:28:00.665Z,4
2022-10-05T15:30:00.732Z,4
2022-10-05T15:32:00.855Z,6
2022-10-05T15:34:00.965Z,5
2022-10-05T15:36:01.167Z,6
2022-10-05T15:38:01.177Z,5
2022-10-05T15:40:01.280Z,4
2022-10-05T15:42:01.374Z,5
2022-10-05T15:44:01.558Z,5
2022-10-05T15:46:01.750Z,5
2022-10-05T15:52:01.920Z,4
2022-10-05T15:54:06.095Z,8
2022-10-05T15:56:02.074Z,5
2022-10-05T15:58:02.183Z,8
2022-10-05T16:00:02.273Z,11
2022-10-05T16:02:02.482Z,11
2022-10-05T16:04:02.479Z,13
2022-10-05T16:06:02.580Z,12
2022-10-05T16:08:02.668Z,13
2022-10-05T16:10:02.768Z,14
2022-10-05T16:12:02.917Z,12
2022-10-05T16:14:02.956Z,13
2022-10-05T16:16:03.040Z,11
2022-10-05T16:18:03.163Z,10
2022-10-05T16:20:03.243Z,9
2022-10-05T16:22:03.315Z,11
2022-10-05T16:24:03.429Z,11
2022-10-05T16:26:03.500Z,11
2022-10-05T16:28:05.679Z,8
2022-10-05T16:30:03.683Z,9
2022-10-05T16:32:03.786Z,9
2022-10-05T16:34:03.868Z,7
2022-10-05T16:36:04.021Z,7
2022-10-05T16:40:04.199Z,7
2022-10-05T16:42:04.229Z,8
2022-10-05T16:44:04.323Z,7
2022-10-05T16:46:04.536Z,7
2022-10-05T16:48:04.502Z,8
2022-10-05T16:50:04.711Z,10
2022-10-05T16:52:04.676Z,8
2022-10-05T16:54:04.758Z,9
2022-10-05T16:56:04.969Z,7
2022-10-05T16:58:04.931Z,7
2022-10-05T17:00:05.101Z,5
2022-10-05T17:02:05.157Z,7
2022-10-05T17:04:05.220Z,7
2022-10-05T17:06:05.298Z,7
2022-10-05T17:08:05.366Z,8
2022-10-05T17:10:05.441Z,7
2022-10-05T17:12:05.522Z,7
2022-10-05T17:14:05.610Z,9
2022-10-05T17:16:05.803Z,9
2022-10-05T17:18:05.783Z,6
2022-10-05T17:20:05.866Z,6
2022-10-05T17:22:35.991Z,6
2022-10-05T17:24:36.096Z,6
2022-10-05T17:26:36.204Z,9
2022-10-05T17:28:36.368Z,8
2022-10-05T17:30:36.489Z,8
2022-10-05T17:32:36.523Z,8
2022-10-05T17:34:36.643Z,8
2022-10-05T17:36:36.756Z,8
2022-10-05T17:38:36.844Z,9
2022-10-05T17:40:36.959Z,7
2022-10-05T17:42:37.062Z,7
2022-10-05T17:44:37.174Z,9
2022-10-05T17:46:37.339Z,7
2022-10-05T17:48:37.404Z,11
2022-10-05T17:50:37.488Z,6
2022-10-05T17:52:37.601Z,7
2022-10-05T17:54:37.711Z,8
2022-10-05T17:56:37.805Z,8
2022-10-05T17:58:37.918Z,7
2022-10-05T18:00:37.997Z,9
2022-10-05T18:02:38.174Z,7
2022-10-05T18:04:38.218Z,10
2022-10-05T18:06:38.543Z,13
2022-10-05T18:08:38.451Z,8
2022-10-05T18:10:41.216Z,8
2022-10-05T18:12:38.618Z,7
2022-10-05T18:14:38.718Z,8
2022-10-05T18:16:38.802Z,10
2022-10-05T18:18:38.906Z,9
2022-10-05T18:20:38.996Z,7
2022-10-05T18:22:39.108Z,9
2022-10-05T18:24:39.215Z,10
2022-10-05T18:26:39.374Z,9
2022-10-05T18:28:39.473Z,9
2022-10-05T18:30:39.493Z,9
2022-10-05T18:32:39.588Z,12
2022-10-05T18:34:39.737Z,13
2022-10-05T18:36:39.758Z,14
2022-10-05T18:38:39.876Z,16
2022-10-05T18:40:39.969Z,16
2022-10-05T18:42:40.049Z,14
2022-10-05T18:44:40.134Z,17
2022-10-05T18:46:40.319Z,14
2022-10-05T18:48:40.323Z,12
2022-10-05T18:50:40.448Z,13
2022-10-05T18:52:40.538Z,11
2022-10-05T18:54:40.625Z,13
2022-10-05T18:56:40.737Z,8
2022-10-05T18:58:40.837Z,9
2022-10-05T19:00:40.938Z,11
2022-10-05T19:02:41.122Z,10
2022-10-05T19:04:41.119Z,11
2022-10-05T19:06:41.262Z,12
2022-10-05T19:08:41.304Z,15
2022-10-05T19:10:41.394Z,18
2022-10-05T19:12:41.742Z,13
2022-10-05T19:14:41.567Z,13
2022-10-05T19:16:41.651Z,12
2022-10-05T19:18:41.741Z,13
2022-10-05T19:20:41.852Z,11
2022-10-05T19:22:42.010Z,12
2022-10-05T19:24:42.010Z,17
2022-10-05T19:26:42.195Z,25
2022-10-05T19:28:42.248Z,30
2022-10-05T19:30:42.294Z,24
2022-10-05T19:32:42.378Z,26
2022-10-05T19:34:42.466Z,17
2022-10-05T19:36:42.574Z,19
2022-10-05T19:38:42.658Z,19
2022-10-05T19:40:42.745Z,17
2022-10-05T19:42:42.860Z,12
2022-10-05T19:44:42.942Z,11
2022-10-05T19:46:43.085Z,11
2022-10-05T19:48:43.159Z,10
2022-10-05T19:50:43.215Z,9
2022-10-05T19:52:47.553Z,9
2022-10-05T19:54:43.398Z,8
2022-10-05T19:56:43.495Z,8
2022-10-05T19:58:43.587Z,9
2022-10-05T20:00:43.666Z,11
2022-10-05T20:02:43.817Z,18
2022-10-05T20:04:43.855Z,19
2022-10-05T20:06:43.950Z,14
2022-10-05T20:08:44.045Z,16
2022-10-05T20:10:44.130Z,17
2022-10-05T20:12:44.239Z,18
2022-10-05T20:14:44.292Z,18
2022-10-05T20:18:44.490Z,18
2022-10-05T20:20:47.251Z,18
2022-10-05T20:22:44.680Z,17
2022-10-05T20:24:44.754Z,16
2022-10-05T20:28:45.024Z,20
2022-10-05T20:30:45.065Z,16
2022-10-05T20:32:45.205Z,18
2022-10-05T20:34:45.191Z,15
2022-10-05T20:36:45.280Z,16
2022-10-05T20:38:45.381Z,19
2022-10-05T20:40:45.472Z,22
2022-10-05T20:42:45.574Z,19
2022-10-05T20:44:45.660Z,17
2022-10-05T20:46:45.825Z,13
2022-10-05T20:48:45.838Z,13
2022-10-05T20:50:45.939Z,14
2022-10-05T20:52:46.028Z,15
2022-10-05T20:56:46.185Z,16
2022-10-05T20:59:16.308Z,15
2022-10-05T21:01:16.528Z,14
2022-10-05T21:03:16.564Z,14
2022-10-05T21:05:16.780Z,12
2022-10-05T21:09:16.908Z,14
2022-10-05T21:11:17.036Z,17
2022-10-05T21:13:17.266Z,14
2022-10-05T21:15:17.255Z,14
2022-10-05T21:19:17.487Z,16
2022-10-05T21:21:17.596Z,16
2022-10-05T21:23:17.717Z,17
2022-10-05T21:25:17.835Z,17
2022-10-05T21:27:17.946Z,16
2022-10-05T21:29:18.056Z,15
2022-10-05T21:31:18.249Z,19
2022-10-05T21:33:18.285Z,18
2022-10-05T21:35:18.403Z,22
2022-10-05T21:37:18.502Z,21
2022-10-05T21:39:18.609Z,18
2022-10-05T21:41:18.732Z,15
2022-10-05T21:43:18.852Z,11
2022-10-05T21:45:18.963Z,11
2022-10-05T21:47:19.062Z,11
2022-10-05T21:49:19.873Z,11
2022-10-05T21:51:19.257Z,10
2022-10-05T21:53:19.385Z,11
2022-10-05T21:55:19.468Z,10
2022-10-05T21:57:19.594Z,13
2022-10-05T21:59:19.698Z,12
2022-10-05T22:01:22.652Z,10
2022-10-05T22:03:19.908Z,9
2022-10-05T22:05:20.154Z,10
2022-10-05T22:07:20.126Z,8
2022-10-05T22:09:20.229Z,6
2022-10-05T22:11:20.327Z,6
2022-10-05T22:13:20.437Z,6
2022-10-05T22:15:20.547Z,7
2022-10-05T22:17:20.619Z,6
2022-10-05T22:19:20.727Z,5
2022-10-05T22:21:20.840Z,8
2022-10-05T22:23:20.964Z,7
2022-10-05T22:25:21.091Z,7
2022-10-05T22:27:21.153Z,5
2022-10-05T22:29:21.248Z,6
2022-10-05T22:31:21.414Z,8
2022-10-05T22:33:21.643Z,6
2022-10-05T22:35:21.590Z,7
2022-10-05T22:37:21.695Z,7
2022-10-05T22:39:21.796Z,6
2022-10-05T22:41:21.908Z,7
2022-10-05T22:43:22.024Z,7
2022-10-05T22:45:22.115Z,6
2022-10-05T22:47:22.213Z,7
2022-10-05T22:49:22.280Z,6
2022-10-05T22:51:22.387Z,6
2022-10-05T22:53:22.505Z,6
2022-10-05T22:55:22.606Z,8
2022-10-05T22:57:22.718Z,6
2022-10-05T22:59:22.820Z,7
2022-10-05T23:01:22.980Z,5
2022-10-05T23:03:23.042Z,4
2022-10-05T23:05:23.193Z,7
2022-10-05T23:07:23.242Z,7
2022-10-05T23:09:23.331Z,8
2022-10-05T23:11:23.433Z,6
2022-10-05T23:13:23.580Z,7
2022-10-05T23:15:23.638Z,7
2022-10-05T23:17:23.731Z,7
2022-10-05T23:19:23.819Z,8
2022-10-05T23:21:23.932Z,7
2022-10-05T23:23:24.031Z,7
2022-10-05T23:25:24.138Z,7
2022-10-05T23:27:24.298Z,6
2022-10-05T23:29:24.350Z,7
2022-10-05T23:31:24.428Z,7
2022-10-05T23:33:24.506Z,7
2022-10-05T23:35:24.625Z,8
2022-10-05T23:39:24.824Z,9
2022-10-05T23:41:24.929Z,7
2022-10-05T23:43:25.003Z,8
2022-10-05T23:45:25.144Z,10
2022-10-05T23:47:25.230Z,7
2022-10-05T23:49:25.311Z,8
2022-10-05T23:51:25.373Z,7
2022-10-05T23:53:25.485Z,8
2022-10-05T23:55:25.584Z,8
2022-10-05T23:57:25.676Z,7
2022-10-05T23:59:25.778Z,10
